Terminal Aerodrome Forecast
Issued by NWS

Home | Current Version | Previous Version | Text Only | Print | Product List | Glossary On
Versions: 1 2 3 4 5 6 7 8 9 10 11 12 13 14 15 16 17 18 19
000
FTUS45 KBOU 240748 AAA
TAFBJC
TAF AMD
KBJC 240748Z 2408/2506 24010KT P6SM FEW120 BKN200
      TEMPO 2408/2412 25018G28KT
     FM241200 27014KT P6SM FEW100 BKN200
     FM241600 VRB04KT P6SM SCT110 SCT200
     FM250400 23007KT P6SM FEW200=

USA.gov is the U.S. government's official web portal to all federal, state and local government web resources and services.